Neligh, Nebraska
Current Conditions -  °F | °C
As of 9:35 PM on Saturday 22 Nov 2014 (Local Time) from KBVN Reporting Station
Clear Clear  
Wind Chill: 41°   Ceiling: Unl
Heat Index: 41°   Visibility: 10mi
Dew Point: 35°   Wind: 3mph
Humidity: 79%   Direction: 170°S
Pressure: 29.52"   Gusts: NA
Location:  42.13°N, 98.03°W
Report Text: KBVN 230335Z AUTO 17003KT 10SM CLR 05/02 A2952 RMK AO2 T00500016
Loading
Personal Weather Stations






























Interactive Weather Map New forecast layout! Learn more

10-Day Weather Forecast

Advertisements
Track Severe Weather on mobile